createdAt,value
2018-09-26T00:00:01.174Z,3.90
2018-09-26T00:03:09.934Z,3.80
2018-09-26T00:06:14.071Z,3.80
2018-09-26T00:09:18.200Z,3.80
2018-09-26T00:12:22.306Z,3.60
2018-09-26T00:15:26.431Z,3.50
2018-09-26T00:18:30.562Z,3.50
2018-09-26T00:21:34.886Z,3.40
2018-09-26T00:24:39.013Z,3.40
2018-09-26T00:27:43.119Z,3.40
2018-09-26T00:30:47.644Z,3.50
2018-09-26T00:33:51.735Z,3.40
2018-09-26T00:36:55.818Z,3.20
2018-09-26T00:39:59.984Z,3.10
2018-09-26T00:43:04.131Z,3.00
2018-09-26T00:46:09.390Z,3.00
2018-09-26T00:49:13.600Z,3.00
2018-09-26T00:52:17.700Z,2.90
2018-09-26T00:55:21.870Z,3.00
2018-09-26T00:58:25.963Z,3.10
2018-09-26T01:01:30.074Z,3.10
2018-09-26T01:04:34.595Z,3.10
2018-09-26T01:07:39.094Z,3.10
2018-09-26T01:10:43.316Z,3.00
2018-09-26T01:13:47.390Z,3.10
2018-09-26T01:16:51.554Z,3.00
2018-09-26T01:19:55.686Z,3.00
2018-09-26T01:22:59.811Z,2.80
2018-09-26T01:26:04.017Z,2.70
2018-09-26T01:29:08.135Z,2.70
2018-09-26T01:32:12.270Z,2.70
2018-09-26T01:35:16.408Z,2.80
2018-09-26T01:38:20.567Z,2.90
2018-09-26T01:41:24.791Z,2.90
2018-09-26T01:44:29.096Z,2.90
2018-09-26T01:47:33.260Z,2.90
2018-09-26T01:50:37.526Z,2.90
2018-09-26T01:53:41.650Z,2.90
2018-09-26T01:56:45.836Z,2.90
2018-09-26T01:59:49.983Z,2.90
2018-09-26T02:02:54.094Z,2.90
2018-09-26T02:05:58.243Z,3.00
2018-09-26T02:09:03.197Z,3.00
2018-09-26T02:12:08.311Z,2.90
2018-09-26T02:15:12.437Z,2.80
2018-09-26T02:18:16.520Z,2.60
2018-09-26T02:21:20.621Z,2.70
2018-09-26T02:24:24.846Z,2.70
2018-09-26T02:27:28.942Z,2.70
2018-09-26T02:30:33.133Z,2.40
2018-09-26T02:33:37.811Z,2.30
2018-09-26T02:36:41.903Z,2.30
2018-09-26T02:39:46.029Z,2.20
2018-09-26T02:42:50.165Z,2.20
2018-09-26T02:45:54.346Z,2.30
2018-09-26T02:49:04.624Z,2.20
2018-09-26T02:52:08.786Z,2.20
2018-09-26T02:55:12.859Z,2.20
2018-09-26T02:58:16.988Z,2.20
2018-09-26T03:01:21.245Z,2.40
2018-09-26T03:04:25.569Z,2.50
2018-09-26T03:07:29.960Z,2.40
2018-09-26T03:10:34.096Z,2.30
2018-09-26T03:13:38.264Z,2.30
2018-09-26T03:16:43.184Z,2.50
2018-09-26T03:19:48.639Z,2.30
2018-09-26T03:22:52.888Z,2.30
2018-09-26T03:25:57.043Z,2.50
2018-09-26T03:29:01.110Z,2.60
2018-09-26T03:32:05.215Z,2.70
2018-09-26T03:35:09.359Z,2.70
2018-09-26T03:38:13.474Z,2.80
2018-09-26T03:41:17.640Z,2.80
2018-09-26T03:44:21.771Z,2.90
2018-09-26T03:47:25.904Z,3.00
2018-09-26T03:50:30.147Z,3.00
2018-09-26T03:53:34.340Z,2.80
2018-09-26T03:56:38.577Z,2.70
2018-09-26T03:59:42.880Z,2.50
2018-09-26T04:02:46.997Z,2.50
2018-09-26T04:05:51.851Z,2.60
2018-09-26T04:08:55.995Z,2.60
2018-09-26T04:12:00.175Z,2.70
2018-09-26T04:15:04.686Z,2.70
2018-09-26T04:18:08.772Z,2.50
2018-09-26T04:21:12.839Z,2.50
2018-09-26T04:24:16.993Z,2.40
2018-09-26T04:27:21.868Z,2.50
2018-09-26T04:30:25.971Z,2.40
2018-09-26T04:33:30.271Z,2.40
2018-09-26T04:36:34.264Z,2.40
2018-09-26T04:39:38.435Z,2.50
2018-09-26T04:42:42.513Z,2.40
2018-09-26T04:45:46.670Z,2.50
2018-09-26T04:48:50.750Z,2.50
2018-09-26T04:51:54.866Z,2.40
2018-09-26T04:54:59.025Z,2.30
2018-09-26T04:58:03.191Z,2.30
2018-09-26T05:01:07.282Z,2.20
2018-09-26T05:04:11.412Z,2.30
2018-09-26T05:07:15.555Z,2.30
2018-09-26T05:10:20.175Z,2.40
2018-09-26T05:13:24.293Z,2.60
2018-09-26T05:16:28.511Z,2.50
2018-09-26T05:19:32.673Z,2.50
2018-09-26T05:22:37.153Z,2.50
2018-09-26T05:25:41.227Z,2.70
2018-09-26T05:28:45.327Z,2.80
2018-09-26T05:31:49.472Z,3.00
2018-09-26T05:34:53.603Z,3.00
2018-09-26T05:37:57.733Z,2.90
2018-09-26T05:41:01.924Z,2.90
2018-09-26T05:44:06.711Z,3.00
2018-09-26T05:47:10.838Z,3.10
2018-09-26T05:50:15.174Z,3.20
2018-09-26T05:53:19.288Z,3.20
2018-09-26T05:56:23.457Z,3.50
2018-09-26T05:59:27.750Z,3.70
2018-09-26T06:02:31.817Z,4.00
2018-09-26T06:05:36.012Z,4.00
2018-09-26T06:08:40.120Z,4.10
2018-09-26T06:11:44.889Z,4.20
2018-09-26T06:14:48.971Z,4.60
2018-09-26T06:17:53.089Z,4.80
2018-09-26T06:20:57.225Z,5.20
2018-09-26T06:24:01.354Z,6.10
2018-09-26T06:27:05.987Z,7.10
2018-09-26T06:30:10.316Z,8.00
2018-09-26T06:33:14.695Z,8.30
2018-09-26T06:36:18.893Z,8.40
2018-09-26T06:39:23.003Z,8.30
2018-09-26T06:42:28.106Z,9.00
2018-09-26T06:45:32.253Z,9.60
2018-09-26T06:48:36.458Z,10.90
2018-09-26T06:51:40.588Z,12.00
2018-09-26T06:54:44.694Z,12.10
2018-09-26T06:57:50.118Z,13.70
2018-09-26T07:00:54.301Z,15.00
2018-09-26T07:03:58.560Z,15.70
2018-09-26T07:07:02.712Z,16.60
2018-09-26T07:10:07.276Z,15.90
2018-09-26T07:13:11.405Z,17.10
2018-09-26T07:16:15.499Z,18.10
2018-09-26T07:19:20.140Z,17.30
2018-09-26T07:22:24.242Z,16.40
2018-09-26T07:25:28.628Z,15.30
2018-09-26T07:28:32.856Z,14.80
2018-09-26T07:31:37.053Z,14.00
2018-09-26T07:34:41.132Z,13.80
2018-09-26T07:37:45.293Z,14.80
2018-09-26T07:40:49.691Z,15.90
2018-09-26T07:43:54.748Z,15.60
2018-09-26T07:46:58.896Z,15.60
2018-09-26T07:50:03.043Z,16.50
2018-09-26T07:53:07.239Z,17.10
2018-09-26T07:56:11.672Z,16.20
2018-09-26T07:59:15.856Z,17.00
2018-09-26T08:02:20.049Z,17.50
2018-09-26T08:05:24.154Z,17.30
2018-09-26T08:08:28.396Z,16.50
2018-09-26T08:11:32.494Z,15.80
2018-09-26T08:14:36.644Z,15.10
2018-09-26T08:17:40.743Z,15.20
2018-09-26T08:20:44.902Z,14.90
2018-09-26T08:23:49.184Z,15.00
2018-09-26T08:26:53.207Z,15.30
2018-09-26T08:29:57.437Z,15.60
2018-09-26T08:33:02.376Z,15.60
2018-09-26T08:36:06.817Z,15.50
2018-09-26T08:39:12.481Z,15.60
2018-09-26T08:42:16.551Z,15.60
2018-09-26T08:45:21.534Z,15.30
2018-09-26T08:48:25.636Z,15.10
2018-09-26T08:51:30.150Z,15.00
2018-09-26T08:54:34.256Z,14.60
2018-09-26T08:57:41.209Z,14.20
2018-09-26T09:00:49.590Z,14.40
2018-09-26T09:03:54.052Z,14.40
2018-09-26T09:06:58.162Z,14.60
2018-09-26T09:10:02.280Z,14.70
2018-09-26T09:13:06.443Z,14.80
2018-09-26T09:16:10.622Z,15.20
2018-09-26T09:19:14.727Z,15.20
2018-09-26T09:22:18.827Z,15.10
2018-09-26T09:25:22.930Z,15.10
2018-09-26T09:28:27.182Z,14.90
2018-09-26T09:31:31.329Z,15.00
2018-09-26T09:34:35.516Z,15.30
2018-09-26T09:37:39.648Z,16.20
2018-09-26T09:40:44.757Z,17.60
2018-09-26T09:43:48.928Z,18.00
2018-09-26T09:46:53.052Z,18.50
2018-09-26T09:49:57.220Z,19.30
2018-09-26T09:53:01.372Z,20.90
2018-09-26T09:56:05.562Z,20.00
2018-09-26T09:59:09.689Z,19.20
2018-09-26T10:02:13.901Z,19.20
2018-09-26T10:05:18.102Z,19.50
2018-09-26T10:08:22.864Z,20.90
2018-09-26T10:11:27.370Z,20.50
2018-09-26T10:14:31.536Z,19.10
2018-09-26T10:17:35.718Z,20.00
2018-09-26T10:20:39.786Z,20.60
2018-09-26T10:23:43.888Z,20.00
2018-09-26T10:26:48.459Z,20.00
2018-09-26T10:29:53.916Z,19.70
2018-09-26T10:32:58.092Z,19.90
2018-09-26T10:36:02.651Z,20.40
2018-09-26T10:39:08.714Z,20.50
2018-09-26T10:42:12.880Z,20.50
2018-09-26T10:45:17.129Z,21.20
2018-09-26T10:48:21.261Z,21.00
2018-09-26T10:51:25.599Z,20.70
2018-09-26T10:54:29.864Z,20.80
2018-09-26T10:57:34.385Z,20.20
2018-09-26T11:00:38.497Z,20.50
2018-09-26T11:03:42.588Z,20.50
2018-09-26T11:06:46.765Z,20.60
2018-09-26T11:09:51.156Z,21.00
2018-09-26T11:12:55.375Z,20.20
2018-09-26T11:15:59.738Z,20.20
2018-09-26T11:19:03.907Z,19.80
2018-09-26T11:22:08.092Z,19.40
2018-09-26T11:25:12.208Z,19.50
2018-09-26T11:28:16.471Z,19.60
2018-09-26T11:31:20.911Z,19.10
2018-09-26T11:34:25.047Z,18.80
2018-09-26T11:37:29.232Z,18.40
2018-09-26T11:40:33.893Z,18.20
2018-09-26T11:43:38.040Z,17.90
2018-09-26T11:46:42.202Z,17.70
2018-09-26T11:49:46.407Z,17.60
2018-09-26T11:52:50.521Z,17.50
2018-09-26T11:55:54.768Z,17.40
2018-09-26T11:58:58.837Z,17.30
2018-09-26T12:02:03.018Z,17.30
2018-09-26T12:05:07.265Z,17.40
2018-09-26T12:08:11.468Z,17.30
2018-09-26T12:11:15.950Z,17.40
2018-09-26T12:14:20.136Z,17.40
2018-09-26T12:17:24.283Z,17.50
2018-09-26T12:20:28.588Z,17.30
2018-09-26T12:23:32.751Z,17.50
2018-09-26T12:26:37.118Z,17.50
2018-09-26T12:29:41.939Z,17.50
2018-09-26T12:32:46.023Z,17.50
2018-09-26T12:35:50.307Z,17.70
2018-09-26T12:38:54.434Z,17.90
2018-09-26T12:41:58.571Z,18.00
2018-09-26T12:45:02.699Z,18.20
2018-09-26T12:48:07.399Z,17.90
2018-09-26T12:51:11.633Z,17.60
2018-09-26T12:54:16.133Z,17.40
2018-09-26T12:57:20.686Z,17.50
2018-09-26T13:00:25.365Z,17.70
2018-09-26T13:03:29.510Z,17.60
2018-09-26T13:06:33.668Z,17.30
2018-09-26T13:09:37.838Z,17.20
2018-09-26T13:12:42.052Z,17.20
2018-09-26T13:15:46.266Z,17.10
2018-09-26T13:18:50.477Z,17.30
2018-09-26T13:21:54.540Z,17.30
2018-09-26T13:24:58.971Z,17.30
2018-09-26T13:28:03.160Z,17.10
2018-09-26T13:31:07.501Z,17.10
2018-09-26T13:34:11.796Z,17.00
2018-09-26T13:37:19.255Z,17.10
2018-09-26T13:40:24.095Z,17.10
2018-09-26T13:43:28.308Z,17.00
2018-09-26T13:46:32.760Z,17.00
2018-09-26T13:49:36.811Z,16.90
2018-09-26T13:52:41.318Z,17.00
2018-09-26T13:55:45.477Z,17.00
2018-09-26T13:58:49.598Z,17.10
2018-09-26T14:01:53.821Z,17.00
2018-09-26T14:04:58.052Z,16.90
2018-09-26T14:08:02.285Z,16.90
2018-09-26T14:11:06.471Z,17.00
2018-09-26T14:14:10.766Z,17.10
2018-09-26T14:17:14.894Z,17.30
2018-09-26T14:20:19.084Z,17.30
2018-09-26T14:23:23.150Z,17.20
2018-09-26T14:26:27.362Z,17.20
2018-09-26T14:29:31.522Z,17.10
2018-09-26T14:32:35.691Z,17.10
2018-09-26T14:35:39.799Z,17.00
2018-09-26T14:38:43.995Z,16.90
2018-09-26T14:41:49.045Z,16.80
2018-09-26T14:44:53.169Z,16.80
2018-09-26T14:47:57.322Z,16.70
2018-09-26T14:51:01.430Z,16.60
2018-09-26T14:54:05.794Z,16.70
2018-09-26T14:57:09.935Z,16.70
2018-09-26T15:00:14.879Z,16.70
2018-09-26T15:03:19.275Z,16.80
2018-09-26T15:06:23.617Z,16.60
2018-09-26T15:09:27.900Z,16.50
2018-09-26T15:12:32.092Z,16.40
2018-09-26T15:15:37.113Z,16.50
2018-09-26T15:18:41.219Z,16.50
2018-09-26T15:21:45.781Z,16.40
2018-09-26T15:24:49.895Z,16.40
2018-09-26T15:27:54.180Z,16.40
2018-09-26T15:30:58.252Z,16.40
2018-09-26T15:34:02.475Z,16.40
2018-09-26T15:37:06.638Z,16.40
2018-09-26T15:40:10.977Z,16.40
2018-09-26T15:43:15.095Z,16.30
2018-09-26T15:46:19.210Z,16.30
2018-09-26T15:49:23.335Z,16.30
2018-09-26T15:52:27.549Z,16.30
2018-09-26T15:55:31.827Z,16.20
2018-09-26T15:58:36.114Z,16.20
2018-09-26T16:01:40.231Z,16.20
2018-09-26T16:04:44.478Z,16.10
2018-09-26T16:07:48.674Z,16.00
2018-09-26T16:10:52.890Z,16.00
2018-09-26T16:13:57.188Z,16.00
2018-09-26T16:17:01.339Z,16.00
2018-09-26T16:20:05.618Z,16.00
2018-09-26T16:23:10.449Z,15.90
2018-09-26T16:26:14.574Z,15.80
2018-09-26T16:29:18.742Z,15.80
2018-09-26T16:32:22.930Z,15.80
2018-09-26T16:35:27.160Z,15.70
2018-09-26T16:38:31.469Z,15.70
2018-09-26T16:41:35.644Z,15.60
2018-09-26T16:44:39.801Z,15.60
2018-09-26T16:47:44.132Z,15.50
2018-09-26T16:50:48.494Z,15.50
2018-09-26T16:53:52.674Z,15.40
2018-09-26T16:56:56.834Z,15.30
2018-09-26T17:00:01.302Z,15.20
2018-09-26T17:03:05.666Z,15.10
2018-09-26T17:06:10.034Z,15.00
2018-09-26T17:09:13.983Z,14.70
2018-09-26T17:12:18.239Z,14.50
2018-09-26T17:15:22.441Z,14.40
2018-09-26T17:18:27.080Z,14.30
2018-09-26T17:21:31.217Z,14.30
2018-09-26T17:24:35.369Z,14.20
2018-09-26T17:27:39.865Z,14.20
2018-09-26T17:30:44.071Z,14.10
2018-09-26T17:33:48.255Z,14.10
2018-09-26T17:36:52.566Z,14.00
2018-09-26T17:39:56.678Z,13.90
2018-09-26T17:43:01.276Z,13.80
2018-09-26T17:46:05.471Z,13.70
2018-09-26T17:49:09.650Z,13.60
2018-09-26T17:52:13.832Z,13.60
2018-09-26T17:55:17.983Z,13.50
2018-09-26T17:58:22.180Z,13.40
2018-09-26T18:01:26.290Z,13.40
2018-09-26T18:04:30.667Z,13.40
2018-09-26T18:07:34.902Z,13.30
2018-09-26T18:10:39.772Z,13.30
2018-09-26T18:13:43.894Z,13.20
2018-09-26T18:16:48.045Z,13.20
2018-09-26T18:19:52.380Z,13.20
2018-09-26T18:22:56.516Z,13.20
2018-09-26T18:26:00.669Z,13.20
2018-09-26T18:29:04.916Z,13.20
2018-09-26T18:32:09.049Z,13.20
2018-09-26T18:35:13.239Z,13.10
2018-09-26T18:38:17.329Z,13.10
2018-09-26T18:41:21.459Z,13.20
2018-09-26T18:44:26.714Z,13.20
2018-09-26T18:47:30.908Z,13.20
2018-09-26T18:50:35.076Z,13.20
2018-09-26T18:53:39.604Z,13.20
2018-09-26T18:56:43.698Z,13.10
2018-09-26T18:59:47.794Z,13.00
2018-09-26T19:02:52.071Z,12.90
2018-09-26T19:05:56.157Z,12.90
2018-09-26T19:09:00.476Z,12.70
2018-09-26T19:12:04.849Z,12.50
2018-09-26T19:15:09.189Z,12.50
2018-09-26T19:18:13.553Z,12.60
2018-09-26T19:21:17.973Z,12.50
2018-09-26T19:24:22.129Z,12.50
2018-09-26T19:27:26.257Z,12.50
2018-09-26T19:30:30.486Z,12.50
2018-09-26T19:33:34.587Z,12.50
2018-09-26T19:36:38.699Z,12.50
2018-09-26T19:39:42.841Z,12.50
2018-09-26T19:42:46.986Z,12.40
2018-09-26T19:45:51.278Z,12.30
2018-09-26T19:48:55.434Z,12.30
2018-09-26T19:51:59.602Z,12.40
2018-09-26T19:55:03.732Z,12.40
2018-09-26T19:58:07.806Z,12.40
2018-09-26T20:01:12.003Z,12.40
2018-09-26T20:04:16.173Z,12.30
2018-09-26T20:07:20.425Z,12.20
2018-09-26T20:10:24.613Z,12.10
2018-09-26T20:13:36.992Z,12.10
2018-09-26T20:16:41.198Z,12.10
2018-09-26T20:19:45.357Z,12.10
2018-09-26T20:22:49.475Z,12.10
2018-09-26T20:25:53.617Z,12.10
2018-09-26T20:28:57.818Z,12.00
2018-09-26T20:32:01.930Z,11.90
2018-09-26T20:35:06.142Z,11.90
2018-09-26T20:38:10.221Z,11.90
2018-09-26T20:41:15.020Z,12.00
2018-09-26T20:44:19.146Z,11.90
2018-09-26T20:47:23.307Z,11.90
2018-09-26T20:50:27.498Z,11.90
2018-09-26T20:53:31.683Z,11.90
2018-09-26T20:56:35.972Z,11.90
2018-09-26T20:59:40.120Z,11.80
2018-09-26T21:02:44.350Z,11.90
2018-09-26T21:05:50.046Z,11.90
2018-09-26T21:08:54.415Z,11.90
2018-09-26T21:11:58.796Z,11.80
2018-09-26T21:15:03.638Z,11.60
2018-09-26T21:18:07.917Z,11.50
2018-09-26T21:21:12.142Z,11.40
2018-09-26T21:24:16.245Z,11.50
2018-09-26T21:27:20.414Z,11.50
2018-09-26T21:30:24.550Z,11.40
2018-09-26T21:33:28.786Z,11.40
2018-09-26T21:36:33.337Z,11.30
2018-09-26T21:39:37.479Z,11.20
2018-09-26T21:42:41.607Z,11.00
2018-09-26T21:45:45.761Z,10.80
2018-09-26T21:48:49.925Z,10.70
2018-09-26T21:51:54.018Z,10.70
2018-09-26T21:54:58.169Z,10.60
2018-09-26T21:58:02.615Z,10.50
2018-09-26T22:01:12.220Z,10.50
2018-09-26T22:04:16.303Z,10.60
2018-09-26T22:07:20.535Z,10.50
2018-09-26T22:10:24.649Z,10.60
2018-09-26T22:13:28.863Z,10.50
2018-09-26T22:16:33.095Z,10.50
2018-09-26T22:19:37.372Z,10.40
2018-09-26T22:22:42.300Z,10.30
2018-09-26T22:25:46.704Z,10.20
2018-09-26T22:28:50.775Z,10.00
2018-09-26T22:31:55.271Z,9.90
2018-09-26T22:34:59.329Z,9.80
2018-09-26T22:38:03.574Z,9.90
2018-09-26T22:41:07.792Z,9.80
2018-09-26T22:44:11.979Z,9.80
2018-09-26T22:47:16.144Z,9.90
2018-09-26T22:50:20.252Z,9.90
2018-09-26T22:53:24.387Z,9.90
2018-09-26T22:56:28.727Z,9.70
2018-09-26T22:59:32.842Z,9.70
2018-09-26T23:02:37.001Z,9.70
2018-09-26T23:05:41.225Z,9.60
2018-09-26T23:08:45.273Z,9.50
2018-09-26T23:11:49.426Z,9.40
2018-09-26T23:14:53.616Z,9.40
2018-09-26T23:17:57.739Z,9.40
2018-09-26T23:21:01.944Z,9.30
2018-09-26T23:24:06.368Z,9.40
2018-09-26T23:27:11.032Z,9.40
2018-09-26T23:30:15.123Z,9.40
2018-09-26T23:33:19.266Z,9.30
2018-09-26T23:36:23.756Z,9.30
2018-09-26T23:39:27.858Z,9.30
2018-09-26T23:42:31.963Z,9.30
2018-09-26T23:45:36.143Z,9.30
2018-09-26T23:48:40.298Z,9.30
2018-09-26T23:51:45.028Z,9.30
2018-09-26T23:54:49.240Z,9.30
2018-09-26T23:57:53.323Z,9.30
